sensor_id;sensor_type;location;lat;lon;timestamp;P1;durP1;ratioP1;P2;durP2;ratioP2
18104;SDS011;9179;50.968;3.134;2023-12-29T00:01:48;7.45;;;2.95;;
18104;SDS011;9179;50.968;3.134;2023-12-29T00:04:15;5.82;;;2.50;;
18104;SDS011;9179;50.968;3.134;2023-12-29T00:06:42;7.07;;;2.88;;
18104;SDS011;9179;50.968;3.134;2023-12-29T00:09:09;8.30;;;3.38;;
18104;SDS011;9179;50.968;3.134;2023-12-29T00:11:36;6.70;;;3.00;;
18104;SDS011;9179;50.968;3.134;2023-12-29T00:14:03;7.75;;;3.47;;
18104;SDS011;9179;50.968;3.134;2023-12-29T00:16:31;5.35;;;2.17;;
18104;SDS011;9179;50.968;3.134;2023-12-29T00:18:58;8.77;;;3.10;;
18104;SDS011;9179;50.968;3.134;2023-12-29T00:21:25;6.93;;;2.45;;
18104;SDS011;9179;50.968;3.134;2023-12-29T00:23:52;8.20;;;2.83;;
18104;SDS011;9179;50.968;3.134;2023-12-29T00:26:19;9.32;;;2.88;;
18104;SDS011;9179;50.968;3.134;2023-12-29T00:28:46;6.63;;;3.00;;
18104;SDS011;9179;50.968;3.134;2023-12-29T00:31:13;7.30;;;2.95;;
18104;SDS011;9179;50.968;3.134;2023-12-29T00:33:42;5.18;;;2.53;;
18104;SDS011;9179;50.968;3.134;2023-12-29T00:36:13;5.13;;;2.38;;
18104;SDS011;9179;50.968;3.134;2023-12-29T00:38:41;4.65;;;2.95;;
18104;SDS011;9179;50.968;3.134;2023-12-29T00:41:08;6.75;;;3.03;;
18104;SDS011;9179;50.968;3.134;2023-12-29T00:43:35;7.55;;;2.20;;
18104;SDS011;9179;50.968;3.134;2023-12-29T00:46:02;6.65;;;2.63;;
18104;SDS011;9179;50.968;3.134;2023-12-29T00:48:30;3.50;;;2.20;;
18104;SDS011;9179;50.968;3.134;2023-12-29T00:51:00;6.82;;;2.40;;
18104;SDS011;9179;50.968;3.134;2023-12-29T00:53:27;7.10;;;2.72;;
18104;SDS011;9179;50.968;3.134;2023-12-29T00:55:54;4.53;;;2.72;;
18104;SDS011;9179;50.968;3.134;2023-12-29T00:58:21;5.55;;;2.05;;
18104;SDS011;9179;50.968;3.134;2023-12-29T01:00:48;5.10;;;2.10;;
18104;SDS011;9179;50.968;3.134;2023-12-29T01:03:15;3.80;;;2.67;;
18104;SDS011;9179;50.968;3.134;2023-12-29T01:05:42;6.68;;;2.28;;
18104;SDS011;9179;50.968;3.134;2023-12-29T01:08:10;7.45;;;2.35;;
18104;SDS011;9179;50.968;3.134;2023-12-29T01:10:37;5.93;;;2.67;;
18104;SDS011;9179;50.968;3.134;2023-12-29T01:13:04;6.88;;;2.78;;
18104;SDS011;9179;50.968;3.134;2023-12-29T01:15:31;4.15;;;2.22;;
18104;SDS011;9179;50.968;3.134;2023-12-29T01:17:57;6.88;;;2.40;;
18104;SDS011;9179;50.968;3.134;2023-12-29T01:20:24;4.85;;;2.63;;
18104;SDS011;9179;50.968;3.134;2023-12-29T01:22:51;5.85;;;2.17;;
18104;SDS011;9179;50.968;3.134;2023-12-29T01:25:19;4.88;;;3.13;;
18104;SDS011;9179;50.968;3.134;2023-12-29T01:27:46;5.97;;;3.05;;
18104;SDS011;9179;50.968;3.134;2023-12-29T01:30:13;12.05;;;2.17;;
18104;SDS011;9179;50.968;3.134;2023-12-29T01:32:40;5.60;;;2.55;;
18104;SDS011;9179;50.968;3.134;2023-12-29T01:35:07;5.68;;;2.78;;
18104;SDS011;9179;50.968;3.134;2023-12-29T01:37:34;8.00;;;2.70;;
18104;SDS011;9179;50.968;3.134;2023-12-29T01:40:01;10.55;;;3.40;;
18104;SDS011;9179;50.968;3.134;2023-12-29T01:42:30;7.00;;;2.35;;
18104;SDS011;9179;50.968;3.134;2023-12-29T01:44:57;3.38;;;2.20;;
18104;SDS011;9179;50.968;3.134;2023-12-29T01:47:24;8.18;;;2.47;;
18104;SDS011;9179;50.968;3.134;2023-12-29T01:49:51;4.60;;;2.15;;
18104;SDS011;9179;50.968;3.134;2023-12-29T01:52:18;7.30;;;3.35;;
18104;SDS011;9179;50.968;3.134;2023-12-29T01:54:47;4.63;;;2.38;;
18104;SDS011;9179;50.968;3.134;2023-12-29T01:57:18;5.22;;;2.28;;
18104;SDS011;9179;50.968;3.134;2023-12-29T01:59:47;6.60;;;3.83;;
18104;SDS011;9179;50.968;3.134;2023-12-29T02:02:14;8.95;;;2.50;;
18104;SDS011;9179;50.968;3.134;2023-12-29T02:04:41;9.00;;;2.28;;
18104;SDS011;9179;50.968;3.134;2023-12-29T02:07:08;8.10;;;2.72;;
18104;SDS011;9179;50.968;3.134;2023-12-29T02:09:35;7.40;;;2.30;;
18104;SDS011;9179;50.968;3.134;2023-12-29T02:12:03;8.10;;;2.75;;
18104;SDS011;9179;50.968;3.134;2023-12-29T02:14:31;6.65;;;2.67;;
18104;SDS011;9179;50.968;3.134;2023-12-29T02:17:01;6.55;;;2.83;;
18104;SDS011;9179;50.968;3.134;2023-12-29T02:19:38;6.07;;;2.40;;
18104;SDS011;9179;50.968;3.134;2023-12-29T02:22:07;7.22;;;2.38;;
18104;SDS011;9179;50.968;3.134;2023-12-29T02:24:35;6.97;;;2.20;;
18104;SDS011;9179;50.968;3.134;2023-12-29T02:27:05;8.95;;;2.67;;
18104;SDS011;9179;50.968;3.134;2023-12-29T02:29:39;4.78;;;2.33;;
18104;SDS011;9179;50.968;3.134;2023-12-29T02:32:11;10.60;;;3.70;;
18104;SDS011;9179;50.968;3.134;2023-12-29T02:34:42;7.28;;;3.15;;
18104;SDS011;9179;50.968;3.134;2023-12-29T02:37:11;8.20;;;2.53;;
18104;SDS011;9179;50.968;3.134;2023-12-29T02:39:38;8.60;;;2.95;;
18104;SDS011;9179;50.968;3.134;2023-12-29T02:42:07;12.52;;;4.10;;
18104;SDS011;9179;50.968;3.134;2023-12-29T02:44:34;8.25;;;2.65;;
18104;SDS011;9179;50.968;3.134;2023-12-29T02:47:01;7.57;;;2.30;;
18104;SDS011;9179;50.968;3.134;2023-12-29T02:49:29;5.65;;;2.40;;
18104;SDS011;9179;50.968;3.134;2023-12-29T02:51:56;8.10;;;3.05;;
18104;SDS011;9179;50.968;3.134;2023-12-29T02:54:22;7.40;;;3.33;;
18104;SDS011;9179;50.968;3.134;2023-12-29T02:56:49;8.45;;;3.22;;
18104;SDS011;9179;50.968;3.134;2023-12-29T02:59:18;9.75;;;3.55;;
18104;SDS011;9179;50.968;3.134;2023-12-29T03:01:45;11.05;;;2.80;;
18104;SDS011;9179;50.968;3.134;2023-12-29T03:04:11;6.97;;;2.25;;
18104;SDS011;9179;50.968;3.134;2023-12-29T03:06:39;8.40;;;2.92;;
18104;SDS011;9179;50.968;3.134;2023-12-29T03:09:07;9.32;;;2.63;;
18104;SDS011;9179;50.968;3.134;2023-12-29T03:11:34;5.50;;;2.50;;
18104;SDS011;9179;50.968;3.134;2023-12-29T03:14:00;10.25;;;3.08;;
18104;SDS011;9179;50.968;3.134;2023-12-29T03:16:29;8.13;;;2.80;;
18104;SDS011;9179;50.968;3.134;2023-12-29T03:18:56;7.47;;;3.15;;
18104;SDS011;9179;50.968;3.134;2023-12-29T03:21:22;8.90;;;3.63;;
18104;SDS011;9179;50.968;3.134;2023-12-29T03:23:49;7.88;;;3.85;;
18104;SDS011;9179;50.968;3.134;2023-12-29T03:26:16;7.90;;;2.40;;
18104;SDS011;9179;50.968;3.134;2023-12-29T03:28:43;6.20;;;2.65;;
18104;SDS011;9179;50.968;3.134;2023-12-29T03:31:10;5.35;;;3.47;;
18104;SDS011;9179;50.968;3.134;2023-12-29T03:33:38;5.25;;;2.53;;
18104;SDS011;9179;50.968;3.134;2023-12-29T03:36:06;3.97;;;2.65;;
18104;SDS011;9179;50.968;3.134;2023-12-29T03:38:34;4.53;;;2.45;;
18104;SDS011;9179;50.968;3.134;2023-12-29T03:41:01;10.15;;;2.53;;
18104;SDS011;9179;50.968;3.134;2023-12-29T03:43:28;8.70;;;2.60;;
18104;SDS011;9179;50.968;3.134;2023-12-29T03:45:55;8.20;;;2.90;;
18104;SDS011;9179;50.968;3.134;2023-12-29T03:48:22;7.95;;;3.55;;
18104;SDS011;9179;50.968;3.134;2023-12-29T03:50:50;4.00;;;2.20;;
18104;SDS011;9179;50.968;3.134;2023-12-29T03:53:17;6.30;;;2.63;;
18104;SDS011;9179;50.968;3.134;2023-12-29T03:55:45;10.48;;;1.95;;
18104;SDS011;9179;50.968;3.134;2023-12-29T03:58:12;6.65;;;2.47;;
18104;SDS011;9179;50.968;3.134;2023-12-29T04:00:39;5.40;;;2.25;;
18104;SDS011;9179;50.968;3.134;2023-12-29T04:03:06;8.10;;;2.90;;
18104;SDS011;9179;50.968;3.134;2023-12-29T04:05:33;6.25;;;2.10;;
18104;SDS011;9179;50.968;3.134;2023-12-29T04:08:02;6.00;;;2.30;;
18104;SDS011;9179;50.968;3.134;2023-12-29T04:10:29;4.43;;;2.28;;
18104;SDS011;9179;50.968;3.134;2023-12-29T04:12:56;2.90;;;2.60;;
18104;SDS011;9179;50.968;3.134;2023-12-29T04:15:23;5.45;;;2.78;;
18104;SDS011;9179;50.968;3.134;2023-12-29T04:17:50;7.75;;;3.05;;
18104;SDS011;9179;50.968;3.134;2023-12-29T04:20:17;5.88;;;1.95;;
18104;SDS011;9179;50.968;3.134;2023-12-29T04:22:43;4.68;;;2.20;;
18104;SDS011;9179;50.968;3.134;2023-12-29T04:25:12;10.38;;;2.40;;
18104;SDS011;9179;50.968;3.134;2023-12-29T04:27:39;5.38;;;2.35;;
18104;SDS011;9179;50.968;3.134;2023-12-29T04:30:06;3.35;;;2.10;;
18104;SDS011;9179;50.968;3.134;2023-12-29T04:32:34;5.93;;;2.10;;
18104;SDS011;9179;50.968;3.134;2023-12-29T04:35:00;4.35;;;1.85;;
18104;SDS011;9179;50.968;3.134;2023-12-29T04:37:27;6.32;;;3.10;;
18104;SDS011;9179;50.968;3.134;2023-12-29T04:39:54;2.80;;;1.42;;
18104;SDS011;9179;50.968;3.134;2023-12-29T04:42:23;3.47;;;2.08;;
18104;SDS011;9179;50.968;3.134;2023-12-29T04:44:50;3.80;;;1.92;;
18104;SDS011;9179;50.968;3.134;2023-12-29T04:47:17;2.97;;;2.75;;
18104;SDS011;9179;50.968;3.134;2023-12-29T04:49:43;5.53;;;2.20;;
18104;SDS011;9179;50.968;3.134;2023-12-29T04:52:11;5.75;;;2.33;;
18104;SDS011;9179;50.968;3.134;2023-12-29T04:54:38;5.80;;;2.10;;
18104;SDS011;9179;50.968;3.134;2023-12-29T04:57:05;2.90;;;2.22;;
18104;SDS011;9179;50.968;3.134;2023-12-29T04:59:33;4.93;;;1.70;;
18104;SDS011;9179;50.968;3.134;2023-12-29T05:02:00;4.22;;;2.08;;
18104;SDS011;9179;50.968;3.134;2023-12-29T05:04:27;5.45;;;1.98;;
18104;SDS011;9179;50.968;3.134;2023-12-29T05:06:54;6.50;;;1.83;;
18104;SDS011;9179;50.968;3.134;2023-12-29T05:09:20;4.40;;;2.00;;
18104;SDS011;9179;50.968;3.134;2023-12-29T05:11:47;1.90;;;1.50;;
18104;SDS011;9179;50.968;3.134;2023-12-29T05:14:14;1.60;;;1.50;;
18104;SDS011;9179;50.968;3.134;2023-12-29T05:16:44;5.95;;;2.60;;
18104;SDS011;9179;50.968;3.134;2023-12-29T05:19:11;2.63;;;1.80;;
18104;SDS011;9179;50.968;3.134;2023-12-29T05:21:38;3.28;;;2.28;;
18104;SDS011;9179;50.968;3.134;2023-12-29T05:24:05;4.05;;;1.63;;
18104;SDS011;9179;50.968;3.134;2023-12-29T05:26:32;3.45;;;2.15;;
18104;SDS011;9179;50.968;3.134;2023-12-29T05:28:59;4.35;;;2.30;;
18104;SDS011;9179;50.968;3.134;2023-12-29T05:31:26;2.90;;;1.85;;
18104;SDS011;9179;50.968;3.134;2023-12-29T05:33:55;1.90;;;1.80;;
18104;SDS011;9179;50.968;3.134;2023-12-29T05:36:22;2.28;;;2.13;;
18104;SDS011;9179;50.968;3.134;2023-12-29T05:38:49;3.10;;;2.28;;
18104;SDS011;9179;50.968;3.134;2023-12-29T05:41:16;5.75;;;2.60;;
18104;SDS011;9179;50.968;3.134;2023-12-29T05:43:45;3.25;;;2.15;;
18104;SDS011;9179;50.968;3.134;2023-12-29T05:46:12;4.43;;;1.95;;
18104;SDS011;9179;50.968;3.134;2023-12-29T05:48:39;4.05;;;1.80;;
18104;SDS011;9179;50.968;3.134;2023-12-29T05:51:08;4.43;;;1.90;;
18104;SDS011;9179;50.968;3.134;2023-12-29T05:53:36;2.78;;;2.00;;
18104;SDS011;9179;50.968;3.134;2023-12-29T05:56:03;2.95;;;1.83;;
18104;SDS011;9179;50.968;3.134;2023-12-29T05:58:30;2.92;;;2.72;;
18104;SDS011;9179;50.968;3.134;2023-12-29T06:00:57;2.92;;;2.50;;
18104;SDS011;9179;50.968;3.134;2023-12-29T06:03:25;3.33;;;1.55;;
18104;SDS011;9179;50.968;3.134;2023-12-29T06:05:53;2.25;;;1.88;;
18104;SDS011;9179;50.968;3.134;2023-12-29T06:08:21;3.25;;;1.60;;
18104;SDS011;9179;50.968;3.134;2023-12-29T06:10:48;5.50;;;2.38;;
18104;SDS011;9179;50.968;3.134;2023-12-29T06:13:15;3.50;;;2.50;;
18104;SDS011;9179;50.968;3.134;2023-12-29T06:15:42;3.05;;;1.83;;
18104;SDS011;9179;50.968;3.134;2023-12-29T06:18:09;3.45;;;1.85;;
18104;SDS011;9179;50.968;3.134;2023-12-29T06:20:36;3.00;;;2.08;;
18104;SDS011;9179;50.968;3.134;2023-12-29T06:23:03;2.70;;;2.10;;
18104;SDS011;9179;50.968;3.134;2023-12-29T06:25:31;3.75;;;1.83;;
18104;SDS011;9179;50.968;3.134;2023-12-29T06:27:59;4.97;;;1.98;;
18104;SDS011;9179;50.968;3.134;2023-12-29T06:30:28;5.47;;;1.83;;
18104;SDS011;9179;50.968;3.134;2023-12-29T06:32:55;2.50;;;2.22;;
18104;SDS011;9179;50.968;3.134;2023-12-29T06:35:22;2.08;;;1.70;;
18104;SDS011;9179;50.968;3.134;2023-12-29T06:37:49;1.70;;;1.60;;
18104;SDS011;9179;50.968;3.134;2023-12-29T06:40:16;2.55;;;1.75;;
18104;SDS011;9179;50.968;3.134;2023-12-29T06:42:44;4.85;;;2.10;;
18104;SDS011;9179;50.968;3.134;2023-12-29T06:45:11;1.90;;;1.67;;
18104;SDS011;9179;50.968;3.134;2023-12-29T06:47:40;5.00;;;1.90;;
18104;SDS011;9179;50.968;3.134;2023-12-29T06:50:07;2.50;;;1.50;;
18104;SDS011;9179;50.968;3.134;2023-12-29T06:52:37;2.58;;;1.63;;
18104;SDS011;9179;50.968;3.134;2023-12-29T06:55:05;2.28;;;1.65;;
18104;SDS011;9179;50.968;3.134;2023-12-29T06:57:33;3.50;;;1.23;;
18104;SDS011;9179;50.968;3.134;2023-12-29T07:00:01;1.58;;;1.45;;
18104;SDS011;9179;50.968;3.134;2023-12-29T07:02:29;3.70;;;1.73;;
18104;SDS011;9179;50.968;3.134;2023-12-29T07:04:56;1.55;;;1.40;;
18104;SDS011;9179;50.968;3.134;2023-12-29T07:07:23;1.52;;;1.33;;
18104;SDS011;9179;50.968;3.134;2023-12-29T07:09:51;2.40;;;1.48;;
18104;SDS011;9179;50.968;3.134;2023-12-29T07:12:18;1.08;;;1.00;;
18104;SDS011;9179;50.968;3.134;2023-12-29T07:14:45;1.35;;;1.10;;
18104;SDS011;9179;50.968;3.134;2023-12-29T07:17:13;3.10;;;1.17;;
18104;SDS011;9179;50.968;3.134;2023-12-29T07:19:40;0.90;;;0.90;;
18104;SDS011;9179;50.968;3.134;2023-12-29T07:22:07;1.95;;;1.00;;
18104;SDS011;9179;50.968;3.134;2023-12-29T07:24:34;2.95;;;0.90;;
18104;SDS011;9179;50.968;3.134;2023-12-29T07:27:02;0.95;;;0.77;;
18104;SDS011;9179;50.968;3.134;2023-12-29T07:29:29;0.82;;;0.82;;
18104;SDS011;9179;50.968;3.134;2023-12-29T07:31:58;1.83;;;1.00;;
18104;SDS011;9179;50.968;3.134;2023-12-29T07:34:26;2.70;;;0.85;;
18104;SDS011;9179;50.968;3.134;2023-12-29T07:36:55;0.95;;;0.93;;
18104;SDS011;9179;50.968;3.134;2023-12-29T07:39:23;1.42;;;1.20;;
18104;SDS011;9179;50.968;3.134;2023-12-29T07:41:50;0.93;;;0.93;;
18104;SDS011;9179;50.968;3.134;2023-12-29T07:44:18;2.75;;;0.90;;
18104;SDS011;9179;50.968;3.134;2023-12-29T07:46:45;2.15;;;0.90;;
18104;SDS011;9179;50.968;3.134;2023-12-29T07:49:12;2.92;;;1.00;;
18104;SDS011;9179;50.968;3.134;2023-12-29T07:51:41;1.30;;;1.20;;
18104;SDS011;9179;50.968;3.134;2023-12-29T07:54:08;0.77;;;0.77;;
18104;SDS011;9179;50.968;3.134;2023-12-29T07:56:35;2.30;;;1.50;;
18104;SDS011;9179;50.968;3.134;2023-12-29T07:59:02;1.02;;;0.90;;
18104;SDS011;9179;50.968;3.134;2023-12-29T08:01:30;2.22;;;0.90;;
18104;SDS011;9179;50.968;3.134;2023-12-29T08:03:57;1.20;;;1.20;;
18104;SDS011;9179;50.968;3.134;2023-12-29T08:06:23;1.48;;;1.40;;
18104;SDS011;9179;50.968;3.134;2023-12-29T08:08:52;1.73;;;1.63;;
18104;SDS011;9179;50.968;3.134;2023-12-29T08:11:19;4.68;;;1.75;;
18104;SDS011;9179;50.968;3.134;2023-12-29T08:13:47;1.30;;;1.30;;
18104;SDS011;9179;50.968;3.134;2023-12-29T08:16:14;1.63;;;1.30;;
18104;SDS011;9179;50.968;3.134;2023-12-29T08:18:42;2.33;;;1.25;;
18104;SDS011;9179;50.968;3.134;2023-12-29T08:21:15;1.75;;;0.93;;
18104;SDS011;9179;50.968;3.134;2023-12-29T08:23:43;1.55;;;1.30;;
18104;SDS011;9179;50.968;3.134;2023-12-29T08:26:11;1.80;;;1.02;;
18104;SDS011;9179;50.968;3.134;2023-12-29T08:28:38;1.35;;;1.00;;
18104;SDS011;9179;50.968;3.134;2023-12-29T08:31:06;0.98;;;0.90;;
18104;SDS011;9179;50.968;3.134;2023-12-29T08:33:33;2.45;;;1.25;;
18104;SDS011;9179;50.968;3.134;2023-12-29T08:36:01;1.10;;;1.00;;
18104;SDS011;9179;50.968;3.134;2023-12-29T08:38:29;1.58;;;0.80;;
18104;SDS011;9179;50.968;3.134;2023-12-29T08:40:56;1.15;;;1.05;;
18104;SDS011;9179;50.968;3.134;2023-12-29T08:43:24;1.20;;;1.20;;
18104;SDS011;9179;50.968;3.134;2023-12-29T08:45:51;2.67;;;1.38;;
18104;SDS011;9179;50.968;3.134;2023-12-29T08:48:19;2.35;;;0.95;;
18104;SDS011;9179;50.968;3.134;2023-12-29T08:50:46;2.92;;;1.00;;
18104;SDS011;9179;50.968;3.134;2023-12-29T08:53:13;2.30;;;1.00;;
18104;SDS011;9179;50.968;3.134;2023-12-29T08:55:40;3.58;;;1.40;;
18104;SDS011;9179;50.968;3.134;2023-12-29T08:58:07;1.48;;;1.27;;
18104;SDS011;9179;50.968;3.134;2023-12-29T09:00:36;3.38;;;1.20;;
18104;SDS011;9179;50.968;3.134;2023-12-29T09:03:03;1.55;;;1.10;;
18104;SDS011;9179;50.968;3.134;2023-12-29T09:05:30;1.23;;;1.13;;
18104;SDS011;9179;50.968;3.134;2023-12-29T09:07:57;3.25;;;1.45;;
18104;SDS011;9179;50.968;3.134;2023-12-29T09:10:24;2.80;;;1.30;;
18104;SDS011;9179;50.968;3.134;2023-12-29T09:12:51;2.40;;;1.55;;
18104;SDS011;9179;50.968;3.134;2023-12-29T09:15:18;2.33;;;1.30;;
18104;SDS011;9179;50.968;3.134;2023-12-29T09:17:46;1.08;;;0.93;;
18104;SDS011;9179;50.968;3.134;2023-12-29T09:20:13;1.27;;;1.17;;
18104;SDS011;9179;50.968;3.134;2023-12-29T09:22:40;4.55;;;1.65;;
18104;SDS011;9179;50.968;3.134;2023-12-29T09:25:07;2.88;;;2.05;;
18104;SDS011;9179;50.968;3.134;2023-12-29T09:27:34;3.20;;;1.40;;
18104;SDS011;9179;50.968;3.134;2023-12-29T09:30:01;2.28;;;1.50;;
18104;SDS011;9179;50.968;3.134;2023-12-29T09:32:29;2.30;;;1.10;;
18104;SDS011;9179;50.968;3.134;2023-12-29T09:34:57;1.90;;;1.20;;
18104;SDS011;9179;50.968;3.134;2023-12-29T09:37:24;2.72;;;1.90;;
18104;SDS011;9179;50.968;3.134;2023-12-29T09:39:51;1.83;;;1.50;;
18104;SDS011;9179;50.968;3.134;2023-12-29T09:42:19;2.95;;;1.50;;
18104;SDS011;9179;50.968;3.134;2023-12-29T09:44:49;6.30;;;2.00;;
18104;SDS011;9179;50.968;3.134;2023-12-29T09:47:18;4.78;;;3.28;;
18104;SDS011;9179;50.968;3.134;2023-12-29T09:49:49;5.32;;;2.30;;
18104;SDS011;9179;50.968;3.134;2023-12-29T09:52:18;3.80;;;2.10;;
18104;SDS011;9179;50.968;3.134;2023-12-29T09:54:47;2.90;;;1.85;;
18104;SDS011;9179;50.968;3.134;2023-12-29T09:57:16;6.57;;;2.20;;
18104;SDS011;9179;50.968;3.134;2023-12-29T09:59:44;6.30;;;2.58;;
18104;SDS011;9179;50.968;3.134;2023-12-29T10:02:14;4.63;;;1.45;;
18104;SDS011;9179;50.968;3.134;2023-12-29T10:04:42;4.95;;;2.25;;
18104;SDS011;9179;50.968;3.134;2023-12-29T10:07:10;7.07;;;2.35;;
18104;SDS011;9179;50.968;3.134;2023-12-29T10:09:44;4.53;;;2.10;;
18104;SDS011;9179;50.968;3.134;2023-12-29T10:12:14;6.43;;;2.38;;
18104;SDS011;9179;50.968;3.134;2023-12-29T10:14:48;5.97;;;2.83;;
18104;SDS011;9179;50.968;3.134;2023-12-29T10:17:19;6.50;;;3.05;;
18104;SDS011;9179;50.968;3.134;2023-12-29T10:19:56;6.00;;;2.85;;
18104;SDS011;9179;50.968;3.134;2023-12-29T10:22:35;5.72;;;2.72;;
18104;SDS011;9179;50.968;3.134;2023-12-29T10:25:12;8.70;;;3.15;;
18104;SDS011;9179;50.968;3.134;2023-12-29T10:27:39;5.68;;;2.80;;
18104;SDS011;9179;50.968;3.134;2023-12-29T10:30:07;6.95;;;2.58;;
18104;SDS011;9179;50.968;3.134;2023-12-29T10:32:37;8.10;;;3.25;;
18104;SDS011;9179;50.968;3.134;2023-12-29T10:35:07;9.25;;;2.40;;
18104;SDS011;9179;50.968;3.134;2023-12-29T10:37:36;11.00;;;3.10;;
18104;SDS011;9179;50.968;3.134;2023-12-29T10:40:03;5.95;;;2.30;;
18104;SDS011;9179;50.968;3.134;2023-12-29T10:42:33;6.22;;;2.75;;
18104;SDS011;9179;50.968;3.134;2023-12-29T10:45:04;6.50;;;2.17;;
18104;SDS011;9179;50.968;3.134;2023-12-29T10:47:32;5.15;;;2.45;;
18104;SDS011;9179;50.968;3.134;2023-12-29T10:50:01;7.00;;;2.58;;
18104;SDS011;9179;50.968;3.134;2023-12-29T10:52:30;7.38;;;2.30;;
18104;SDS011;9179;50.968;3.134;2023-12-29T10:55:05;4.90;;;2.10;;
18104;SDS011;9179;50.968;3.134;2023-12-29T10:57:34;8.02;;;2.58;;
18104;SDS011;9179;50.968;3.134;2023-12-29T11:00:02;5.13;;;2.10;;
18104;SDS011;9179;50.968;3.134;2023-12-29T11:02:30;6.07;;;2.55;;
18104;SDS011;9179;50.968;3.134;2023-12-29T11:05:02;4.78;;;2.38;;
18104;SDS011;9179;50.968;3.134;2023-12-29T11:07:33;3.35;;;2.05;;
18104;SDS011;9179;50.968;3.134;2023-12-29T11:10:02;6.03;;;2.00;;
18104;SDS011;9179;50.968;3.134;2023-12-29T11:12:31;2.92;;;1.75;;
18104;SDS011;9179;50.968;3.134;2023-12-29T11:15:01;4.43;;;1.40;;
18104;SDS011;9179;50.968;3.134;2023-12-29T11:17:30;4.72;;;2.45;;
18104;SDS011;9179;50.968;3.134;2023-12-29T11:19:59;3.75;;;1.63;;
18104;SDS011;9179;50.968;3.134;2023-12-29T11:22:27;3.50;;;1.42;;
18104;SDS011;9179;50.968;3.134;2023-12-29T11:24:56;1.83;;;1.20;;
18104;SDS011;9179;50.968;3.134;2023-12-29T11:27:25;3.95;;;1.70;;
18104;SDS011;9179;50.968;3.134;2023-12-29T11:29:55;2.65;;;1.88;;
18104;SDS011;9179;50.968;3.134;2023-12-29T11:32:24;4.55;;;1.48;;
18104;SDS011;9179;50.968;3.134;2023-12-29T11:35:01;2.92;;;1.30;;
18104;SDS011;9179;50.968;3.134;2023-12-29T11:37:40;3.47;;;1.35;;
18104;SDS011;9179;50.968;3.134;2023-12-29T11:40:18;5.00;;;1.20;;
18104;SDS011;9179;50.968;3.134;2023-12-29T11:42:48;2.45;;;1.15;;
18104;SDS011;9179;50.968;3.134;2023-12-29T11:45:24;1.77;;;1.23;;
18104;SDS011;9179;50.968;3.134;2023-12-29T11:47:53;3.83;;;1.80;;
18104;SDS011;9179;50.968;3.134;2023-12-29T11:50:27;2.88;;;1.10;;
18104;SDS011;9179;50.968;3.134;2023-12-29T11:52:55;2.88;;;1.08;;
18104;SDS011;9179;50.968;3.134;2023-12-29T11:55:27;3.22;;;1.00;;
18104;SDS011;9179;50.968;3.134;2023-12-29T11:57:55;1.15;;;1.08;;
18104;SDS011;9179;50.968;3.134;2023-12-29T12:00:35;1.40;;;0.90;;
18104;SDS011;9179;50.968;3.134;2023-12-29T12:03:18;1.35;;;1.25;;
18104;SDS011;9179;50.968;3.134;2023-12-29T12:05:51;1.13;;;0.90;;
18104;SDS011;9179;50.968;3.134;2023-12-29T12:08:29;1.17;;;0.93;;
18104;SDS011;9179;50.968;3.134;2023-12-29T12:10:56;1.88;;;0.90;;
18104;SDS011;9179;50.968;3.134;2023-12-29T12:13:44;0.80;;;0.80;;
18104;SDS011;9179;50.968;3.134;2023-12-29T12:19:19;2.17;;;0.88;;
18104;SDS011;9179;50.968;3.134;2023-12-29T12:21:49;1.75;;;0.82;;
18104;SDS011;9179;50.968;3.134;2023-12-29T12:24:19;1.83;;;1.50;;
18104;SDS011;9179;50.968;3.134;2023-12-29T12:26:46;1.95;;;1.10;;
18104;SDS011;9179;50.968;3.134;2023-12-29T12:29:14;2.40;;;1.60;;
18104;SDS011;9179;50.968;3.134;2023-12-29T12:31:52;1.42;;;1.10;;
18104;SDS011;9179;50.968;3.134;2023-12-29T12:34:21;2.10;;;1.00;;
18104;SDS011;9179;50.968;3.134;2023-12-29T12:36:48;1.38;;;1.27;;
18104;SDS011;9179;50.968;3.134;2023-12-29T12:39:16;2.80;;;1.13;;
18104;SDS011;9179;50.968;3.134;2023-12-29T12:41:43;2.03;;;1.08;;
18104;SDS011;9179;50.968;3.134;2023-12-29T12:44:11;1.50;;;1.10;;
18104;SDS011;9179;50.968;3.134;2023-12-29T12:46:39;2.00;;;1.45;;
18104;SDS011;9179;50.968;3.134;2023-12-29T12:49:11;1.33;;;0.82;;
18104;SDS011;9179;50.968;3.134;2023-12-29T12:51:39;3.17;;;1.20;;
18104;SDS011;9179;50.968;3.134;2023-12-29T12:54:07;1.95;;;1.00;;
18104;SDS011;9179;50.968;3.134;2023-12-29T12:56:34;2.25;;;1.23;;
18104;SDS011;9179;50.968;3.134;2023-12-29T12:59:02;4.15;;;1.42;;
18104;SDS011;9179;50.968;3.134;2023-12-29T13:01:29;1.77;;;1.33;;
18104;SDS011;9179;50.968;3.134;2023-12-29T13:04:02;2.17;;;1.38;;
18104;SDS011;9179;50.968;3.134;2023-12-29T13:06:30;2.40;;;1.48;;
18104;SDS011;9179;50.968;3.134;2023-12-29T13:08:59;3.70;;;1.17;;
18104;SDS011;9179;50.968;3.134;2023-12-29T13:11:28;3.72;;;1.33;;
18104;SDS011;9179;50.968;3.134;2023-12-29T13:13:55;2.45;;;1.05;;
18104;SDS011;9179;50.968;3.134;2023-12-29T13:16:29;1.45;;;1.30;;
18104;SDS011;9179;50.968;3.134;2023-12-29T13:18:56;2.10;;;1.15;;
18104;SDS011;9179;50.968;3.134;2023-12-29T13:21:23;0.75;;;0.70;;
18104;SDS011;9179;50.968;3.134;2023-12-29T13:23:50;1.80;;;1.23;;
18104;SDS011;9179;50.968;3.134;2023-12-29T13:26:21;3.15;;;1.48;;
18104;SDS011;9179;50.968;3.134;2023-12-29T13:28:50;2.53;;;1.20;;
18104;SDS011;9179;50.968;3.134;2023-12-29T13:31:17;1.38;;;1.15;;
18104;SDS011;9179;50.968;3.134;2023-12-29T13:33:58;2.63;;;1.17;;
18104;SDS011;9179;50.968;3.134;2023-12-29T13:36:29;1.38;;;1.00;;
18104;SDS011;9179;50.968;3.134;2023-12-29T13:39:05;2.03;;;1.42;;
18104;SDS011;9179;50.968;3.134;2023-12-29T13:41:36;2.95;;;2.00;;
18104;SDS011;9179;50.968;3.134;2023-12-29T13:44:04;2.88;;;1.40;;
18104;SDS011;9179;50.968;3.134;2023-12-29T13:46:32;4.50;;;3.60;;
18104;SDS011;9179;50.968;3.134;2023-12-29T13:49:00;3.78;;;1.65;;
18104;SDS011;9179;50.968;3.134;2023-12-29T13:51:28;2.15;;;1.63;;
18104;SDS011;9179;50.968;3.134;2023-12-29T13:53:59;2.10;;;1.50;;
18104;SDS011;9179;50.968;3.134;2023-12-29T13:56:26;2.40;;;2.20;;
18104;SDS011;9179;50.968;3.134;2023-12-29T13:58:54;2.70;;;1.77;;
18104;SDS011;9179;50.968;3.134;2023-12-29T14:01:21;3.70;;;1.70;;
18104;SDS011;9179;50.968;3.134;2023-12-29T14:03:50;4.43;;;2.75;;
18104;SDS011;9179;50.968;3.134;2023-12-29T14:06:22;2.47;;;2.10;;
18104;SDS011;9179;50.968;3.134;2023-12-29T14:08:55;5.63;;;2.03;;
18104;SDS011;9179;50.968;3.134;2023-12-29T14:11:22;6.35;;;2.78;;
18104;SDS011;9179;50.968;3.134;2023-12-29T14:13:49;5.88;;;2.85;;
18104;SDS011;9179;50.968;3.134;2023-12-29T14:16:17;6.30;;;2.45;;
18104;SDS011;9179;50.968;3.134;2023-12-29T14:18:54;5.20;;;1.90;;
18104;SDS011;9179;50.968;3.134;2023-12-29T14:21:23;5.88;;;2.40;;
18104;SDS011;9179;50.968;3.134;2023-12-29T14:23:58;5.72;;;2.58;;
18104;SDS011;9179;50.968;3.134;2023-12-29T14:26:27;10.23;;;2.67;;
18104;SDS011;9179;50.968;3.134;2023-12-29T14:29:01;3.78;;;3.05;;
18104;SDS011;9179;50.968;3.134;2023-12-29T14:31:30;3.70;;;2.33;;
18104;SDS011;9179;50.968;3.134;2023-12-29T14:34:00;10.73;;;2.60;;
18104;SDS011;9179;50.968;3.134;2023-12-29T14:36:28;5.53;;;3.13;;
18104;SDS011;9179;50.968;3.134;2023-12-29T14:38:55;4.53;;;2.13;;
18104;SDS011;9179;50.968;3.134;2023-12-29T14:41:22;12.38;;;2.67;;
18104;SDS011;9179;50.968;3.134;2023-12-29T14:43:50;6.25;;;3.47;;
18104;SDS011;9179;50.968;3.134;2023-12-29T14:46:17;6.60;;;2.67;;
18104;SDS011;9179;50.968;3.134;2023-12-29T14:48:45;5.20;;;2.92;;
18104;SDS011;9179;50.968;3.134;2023-12-29T14:51:12;8.55;;;2.80;;
18104;SDS011;9179;50.968;3.134;2023-12-29T14:53:39;9.07;;;3.17;;
18104;SDS011;9179;50.968;3.134;2023-12-29T14:56:09;9.30;;;3.00;;
18104;SDS011;9179;50.968;3.134;2023-12-29T14:58:36;5.60;;;2.60;;
18104;SDS011;9179;50.968;3.134;2023-12-29T15:01:03;8.95;;;4.53;;
18104;SDS011;9179;50.968;3.134;2023-12-29T15:03:30;7.40;;;2.83;;
18104;SDS011;9179;50.968;3.134;2023-12-29T15:05:58;8.65;;;3.33;;
18104;SDS011;9179;50.968;3.134;2023-12-29T15:08:26;7.97;;;3.25;;
18104;SDS011;9179;50.968;3.134;2023-12-29T15:10:59;6.78;;;3.55;;